KDFI/DFI METAR and TAF weather

Enter ICAO airport designator
Station Type Date Time Source
KDFI METAR 2022/12/04 03:53 UTC NOAA

KDFI 040353Z AUTO 23004KT 10SM CLR M04/M09 A3041 RMK AO2 SLP305 T10391089


Station Type Date Time Source
KDFI Decoded METAR 2022/12/04 03:53 UTC NOAA

DEFIANCE MEMORIAL AIRPORT, OH, United States (KDFI) 41-20N 84-26W 219M
Dec 03, 2022 - 10:53 PM EST / 2022.12.04 0353 UTC
Wind: from the SW (230 degrees) at 5 MPH (4 KT):0
Visibility: 10 mile(s):0
Sky conditions: clear
Temperature: 25.0 F (-3.9 C)
Windchill: 19 F (-7 C):1
Dew Point: 16.0 F (-8.9 C)
Relative Humidity: 68%
Pressure (altimeter): 30.41 in. Hg (1029 hPa)
ob: KDFI 040353Z AUTO 23004KT 10SM CLR M04/M09 A3041 RMK AO2 SLP305 T10391089
cycle: 4

Station Type Date Time Source
KDFI TAF UTC NOAA

Error!

Example: see airport list